createdAt,value
2023-04-20T00:02:24.070Z,8.29
2023-04-20T00:04:52.108Z,8.31
2023-04-20T00:07:21.573Z,8.26
2023-04-20T00:09:50.118Z,8.36
2023-04-20T00:12:18.174Z,8.21
2023-04-20T00:14:46.072Z,8.26
2023-04-20T00:17:16.954Z,8.22
2023-04-20T00:19:46.390Z,8.33
2023-04-20T00:22:14.332Z,8.47
2023-04-20T00:24:43.311Z,8.28
2023-04-20T00:27:11.868Z,8.31
2023-04-20T00:29:40.286Z,8.33
2023-04-20T00:32:08.632Z,8.35
2023-04-20T00:34:38.672Z,8.35
2023-04-20T00:37:06.990Z,8.26
2023-04-20T00:39:35.389Z,8.18
2023-04-20T00:42:08.812Z,8.20
2023-04-20T00:44:37.888Z,8.11
2023-04-20T00:47:05.845Z,8.08
2023-04-20T00:49:34.616Z,8.05
2023-04-20T00:52:04.467Z,7.99
2023-04-20T00:54:33.153Z,7.94
2023-04-20T00:57:01.354Z,7.83
2023-04-20T00:59:31.477Z,7.93
2023-04-20T01:01:59.803Z,7.93
2023-04-20T01:04:30.400Z,7.93
2023-04-20T01:06:59.410Z,7.99
2023-04-20T01:09:30.548Z,7.65
2023-04-20T01:11:59.240Z,7.70
2023-04-20T01:14:27.471Z,7.78
2023-04-20T01:16:58.880Z,7.62
2023-04-20T01:19:26.926Z,7.69
2023-04-20T01:21:55.995Z,7.35
2023-04-20T01:24:25.344Z,7.35
2023-04-20T01:26:53.289Z,7.46
2023-04-20T01:29:22.422Z,7.48
2023-04-20T01:31:50.602Z,7.29
2023-04-20T01:34:20.485Z,7.34
2023-04-20T01:36:48.414Z,7.24
2023-04-20T01:39:18.489Z,7.17
2023-04-20T01:41:50.070Z,7.24
2023-04-20T01:44:20.769Z,7.25
2023-04-20T01:46:49.010Z,7.32
2023-04-20T01:49:17.268Z,7.14
2023-04-20T01:51:46.513Z,7.34
2023-04-20T01:54:14.436Z,7.43
2023-04-20T01:56:42.972Z,7.32
2023-04-20T01:59:12.298Z,7.18
2023-04-20T02:01:40.318Z,6.98
2023-04-20T02:04:08.363Z,6.97
2023-04-20T02:06:37.457Z,7.04
2023-04-20T02:09:05.491Z,7.07
2023-04-20T02:11:36.096Z,6.93
2023-04-20T02:14:07.555Z,6.81
2023-04-20T02:16:37.808Z,6.86
2023-04-20T02:19:07.256Z,6.86
2023-04-20T02:21:35.577Z,6.86
2023-04-20T02:24:04.312Z,6.80
2023-04-20T02:26:34.463Z,6.76
2023-04-20T02:29:02.878Z,6.86
2023-04-20T02:31:31.436Z,6.76
2023-04-20T02:34:00.822Z,6.69
2023-04-20T02:36:29.362Z,6.77
2023-04-20T02:38:58.849Z,6.72
2023-04-20T02:41:28.030Z,6.80
2023-04-20T02:43:56.808Z,6.61
2023-04-20T02:46:25.368Z,6.81
2023-04-20T02:48:55.480Z,6.72
2023-04-20T02:51:26.967Z,6.65
2023-04-20T02:53:55.877Z,6.63
2023-04-20T02:56:29.969Z,6.56
2023-04-20T02:59:02.924Z,6.48
2023-04-20T03:01:51.610Z,6.70
2023-04-20T03:04:23.156Z,6.57
2023-04-20T03:07:10.105Z,6.62
2023-04-20T03:09:39.979Z,6.61
2023-04-20T03:12:20.762Z,6.61
2023-04-20T03:14:57.493Z,6.45
2023-04-20T03:17:38.331Z,6.56
2023-04-20T03:20:09.121Z,6.57
2023-04-20T03:22:40.202Z,6.52
2023-04-20T03:25:10.369Z,6.46
2023-04-20T03:27:49.717Z,6.63
2023-04-20T03:30:18.550Z,6.52
2023-04-20T03:32:50.801Z,6.56
2023-04-20T03:35:21.346Z,6.46
2023-04-20T03:37:50.475Z,6.42
2023-04-20T03:40:18.822Z,6.55
2023-04-20T03:42:48.773Z,6.34
2023-04-20T03:45:16.811Z,6.37
2023-04-20T03:47:45.329Z,6.24
2023-04-20T03:50:13.758Z,6.35
2023-04-20T03:52:42.109Z,6.39
2023-04-20T03:55:13.540Z,6.39
2023-04-20T03:57:47.095Z,6.42
2023-04-20T04:00:16.927Z,6.50
2023-04-20T04:02:47.855Z,6.35
2023-04-20T04:05:24.204Z,6.42
2023-04-20T04:07:52.769Z,6.56
2023-04-20T04:10:22.102Z,6.52
2023-04-20T04:12:50.968Z,6.46
2023-04-20T04:15:20.340Z,6.55
2023-04-20T04:17:55.969Z,6.24
2023-04-20T04:20:25.349Z,6.10
2023-04-20T04:22:54.823Z,6.18
2023-04-20T04:26:05.379Z,6.01
2023-04-20T04:28:36.211Z,5.92
2023-04-20T04:31:13.310Z,5.89
2023-04-20T04:33:41.498Z,5.80
2023-04-20T04:36:11.082Z,5.77
2023-04-20T04:38:40.621Z,5.89
2023-04-20T04:41:11.306Z,5.73
2023-04-20T04:43:42.087Z,5.66
2023-04-20T04:46:25.542Z,5.63
2023-04-20T04:48:54.698Z,5.49
2023-04-20T04:51:22.588Z,5.66
2023-04-20T04:53:50.951Z,5.58
2023-04-20T04:56:21.060Z,5.67
2023-04-20T04:58:49.054Z,5.75
2023-04-20T05:01:17.003Z,5.79
2023-04-20T05:03:46.688Z,5.73
2023-04-20T05:06:14.780Z,5.85
2023-04-20T05:08:42.709Z,5.92
2023-04-20T05:11:11.928Z,5.79
2023-04-20T05:13:41.602Z,5.93
2023-04-20T05:16:10.013Z,6.00
2023-04-20T05:18:38.385Z,6.11
2023-04-20T05:21:06.418Z,6.06
2023-04-20T05:23:34.339Z,6.03
2023-04-20T05:26:03.324Z,6.13
2023-04-20T05:28:31.218Z,6.16
2023-04-20T05:31:01.516Z,6.10
2023-04-20T05:33:49.986Z,6.34
2023-04-20T05:36:18.049Z,6.34
2023-04-20T05:38:46.738Z,6.34
2023-04-20T05:41:14.708Z,6.22
2023-04-20T05:43:42.634Z,6.28
2023-04-20T05:46:12.871Z,6.45
2023-04-20T05:48:40.813Z,6.35
2023-04-20T05:51:09.638Z,6.38
2023-04-20T05:53:37.933Z,6.35
2023-04-20T05:56:07.082Z,6.27
2023-04-20T05:58:37.916Z,6.34
2023-04-20T06:01:07.176Z,6.20
2023-04-20T06:03:36.724Z,6.34
2023-04-20T06:06:06.303Z,6.41
2023-04-20T06:08:34.308Z,6.38
2023-04-20T06:11:02.583Z,6.49
2023-04-20T06:13:31.499Z,6.50
2023-04-20T06:15:59.477Z,6.48
2023-04-20T06:18:27.958Z,6.48
2023-04-20T06:20:57.683Z,6.35
2023-04-20T06:23:27.271Z,6.32
2023-04-20T06:25:55.844Z,6.27
2023-04-20T06:28:23.804Z,6.29
2023-04-20T06:30:51.709Z,6.38
2023-04-20T06:33:20.555Z,6.53
2023-04-20T06:35:48.475Z,6.38
2023-04-20T06:38:21.045Z,6.57
2023-04-20T06:40:48.914Z,6.68
2023-04-20T06:43:17.284Z,6.72
2023-04-20T06:45:46.319Z,6.81
2023-04-20T06:48:30.096Z,6.83
2023-04-20T06:51:00.800Z,6.73
2023-04-20T06:53:30.035Z,6.80
2023-04-20T06:55:58.728Z,6.81
2023-04-20T06:58:27.168Z,6.76
2023-04-20T07:00:55.082Z,6.80
2023-04-20T07:03:23.156Z,6.76
2023-04-20T07:05:52.168Z,6.91
2023-04-20T07:08:20.239Z,7.15
2023-04-20T07:10:50.121Z,7.12
2023-04-20T07:13:19.060Z,7.29
2023-04-20T07:15:47.089Z,7.39
2023-04-20T07:18:15.995Z,7.29
2023-04-20T07:20:44.175Z,6.96
2023-04-20T07:23:12.606Z,7.15
2023-04-20T07:25:40.993Z,7.25
2023-04-20T07:28:10.488Z,7.39
2023-04-20T07:30:39.404Z,7.17
2023-04-20T07:33:08.397Z,7.26
2023-04-20T07:35:36.428Z,7.24
2023-04-20T07:38:05.508Z,7.22
2023-04-20T07:40:33.548Z,7.09
2023-04-20T07:43:01.998Z,7.08
2023-04-20T07:45:32.080Z,7.08
2023-04-20T07:48:01.541Z,7.15
2023-04-20T07:50:30.553Z,7.38
2023-04-20T07:52:58.480Z,7.21
2023-04-20T07:55:27.006Z,7.41
2023-04-20T07:57:55.397Z,7.58
2023-04-20T08:00:25.419Z,7.71
2023-04-20T08:02:55.013Z,7.93
2023-04-20T08:05:24.987Z,7.87
2023-04-20T08:07:53.296Z,7.81
2023-04-20T08:10:22.199Z,7.80
2023-04-20T08:12:52.746Z,8.05
2023-04-20T08:15:20.871Z,8.16
2023-04-20T08:17:48.751Z,8.32
2023-04-20T08:20:19.230Z,8.63
2023-04-20T08:22:47.089Z,7.95
2023-04-20T08:25:15.013Z,7.95
2023-04-20T08:27:43.997Z,8.21
2023-04-20T08:30:12.810Z,8.08
2023-04-20T08:32:41.321Z,8.04
2023-04-20T08:35:10.121Z,7.94
2023-04-20T08:37:39.509Z,7.97
2023-04-20T08:40:10.954Z,8.21
2023-04-20T08:42:38.932Z,8.14
2023-04-20T08:45:07.703Z,8.47
2023-04-20T08:47:38.379Z,8.80
2023-04-20T08:50:07.822Z,8.66
2023-04-20T08:52:39.095Z,8.83
2023-04-20T08:55:09.524Z,8.77
2023-04-20T08:57:37.992Z,9.28
2023-04-20T09:00:13.492Z,8.75
2023-04-20T09:02:52.875Z,8.47
2023-04-20T09:05:29.683Z,9.01
2023-04-20T09:07:59.916Z,8.71
2023-04-20T09:10:41.892Z,8.68
2023-04-20T09:13:10.356Z,8.70
2023-04-20T09:15:38.278Z,9.36
2023-04-20T09:18:15.704Z,9.60
2023-04-20T09:20:43.740Z,10.09
2023-04-20T09:23:13.531Z,10.71
2023-04-20T09:25:45.087Z,10.34
2023-04-20T09:28:15.002Z,10.22
2023-04-20T09:30:45.295Z,10.06
2023-04-20T09:33:16.760Z,10.02
2023-04-20T09:35:49.011Z,10.09
2023-04-20T09:38:18.387Z,10.29
2023-04-20T09:40:49.026Z,10.65
2023-04-20T09:43:21.552Z,10.37
2023-04-20T09:45:50.907Z,9.85
2023-04-20T09:48:20.968Z,10.44
2023-04-20T09:50:51.432Z,10.89
2023-04-20T09:53:21.286Z,11.26
2023-04-20T09:55:52.196Z,11.09
2023-04-20T09:58:21.911Z,10.64
2023-04-20T10:00:50.284Z,10.32
2023-04-20T10:03:19.313Z,10.61
2023-04-20T10:05:48.054Z,10.99
2023-04-20T10:08:16.150Z,10.99
2023-04-20T10:10:46.099Z,10.82
2023-04-20T10:13:17.414Z,11.09
2023-04-20T10:15:45.390Z,11.46
2023-04-20T10:18:19.165Z,11.46
2023-04-20T10:20:48.126Z,11.33
2023-04-20T10:23:18.657Z,11.77
2023-04-20T10:25:57.187Z,12.19
2023-04-20T10:28:26.798Z,11.83
2023-04-20T10:30:55.819Z,11.12
2023-04-20T10:33:23.909Z,11.63
2023-04-20T10:35:54.937Z,11.44
2023-04-20T10:38:32.156Z,11.51
2023-04-20T10:41:08.224Z,11.06
2023-04-20T10:43:42.705Z,10.99
2023-04-20T10:46:15.728Z,10.54
2023-04-20T10:48:55.004Z,10.65
2023-04-20T10:51:23.357Z,10.61
2023-04-20T10:54:01.953Z,11.03
2023-04-20T10:56:38.040Z,12.05
2023-04-20T10:59:12.855Z,12.09
2023-04-20T11:01:42.004Z,12.68
2023-04-20T11:04:11.605Z,13.07
2023-04-20T11:06:41.244Z,12.92
2023-04-20T11:09:20.676Z,13.09
2023-04-20T11:12:00.662Z,12.65
2023-04-20T11:14:30.432Z,12.51
2023-04-20T11:16:59.612Z,12.52
2023-04-20T11:19:29.911Z,12.50
2023-04-20T11:21:58.185Z,12.26
2023-04-20T11:24:27.828Z,12.96
2023-04-20T11:26:57.837Z,12.57
2023-04-20T11:29:35.092Z,12.75
2023-04-20T11:35:06.577Z,13.54
2023-04-20T11:37:46.811Z,12.52
2023-04-20T11:40:15.109Z,12.13
2023-04-20T11:42:43.208Z,12.16
2023-04-20T11:45:13.726Z,12.30
2023-04-20T11:47:41.994Z,12.65
2023-04-20T11:50:12.139Z,12.27
2023-04-20T11:52:40.114Z,12.03
2023-04-20T11:55:08.893Z,12.38
2023-04-20T11:57:37.736Z,12.12
2023-04-20T12:00:07.104Z,12.75
2023-04-20T12:02:43.547Z,13.37
2023-04-20T12:05:12.738Z,13.12
2023-04-20T12:07:41.305Z,12.68
2023-04-20T12:10:10.931Z,12.62
2023-04-20T12:12:42.019Z,12.34
2023-04-20T12:15:11.661Z,12.62
2023-04-20T12:17:39.794Z,13.02
2023-04-20T12:20:13.148Z,14.02
2023-04-20T12:22:41.217Z,13.46
2023-04-20T12:25:09.664Z,13.41
2023-04-20T12:27:38.611Z,13.69
2023-04-20T12:30:09.275Z,14.76
2023-04-20T12:32:38.106Z,14.03
2023-04-20T12:35:08.839Z,13.51
2023-04-20T12:37:38.216Z,12.82
2023-04-20T12:40:09.087Z,12.78
2023-04-20T12:42:37.624Z,13.16
2023-04-20T12:45:06.114Z,12.69
2023-04-20T12:47:35.027Z,13.27
2023-04-20T12:50:03.251Z,12.77
2023-04-20T12:52:32.287Z,12.03
2023-04-20T12:55:03.390Z,12.65
2023-04-20T12:57:31.506Z,12.36
2023-04-20T12:59:59.730Z,12.08
2023-04-20T13:02:31.714Z,12.40
2023-04-20T13:04:59.732Z,12.78
2023-04-20T13:07:28.560Z,12.91
2023-04-20T13:09:56.953Z,13.37
2023-04-20T13:12:26.324Z,12.81
2023-04-20T13:14:54.758Z,12.77
2023-04-20T13:17:23.638Z,12.44
2023-04-20T13:19:52.016Z,12.60
2023-04-20T13:22:21.002Z,13.61
2023-04-20T13:24:48.937Z,12.78
2023-04-20T13:27:17.327Z,13.13
2023-04-20T13:29:47.082Z,13.62
2023-04-20T13:32:15.203Z,13.47
2023-04-20T13:34:43.186Z,13.17
2023-04-20T13:37:12.488Z,12.48
2023-04-20T13:39:45.524Z,12.29
2023-04-20T13:42:14.377Z,13.00
2023-04-20T13:44:42.359Z,13.81
2023-04-20T13:47:12.084Z,13.30
2023-04-20T13:52:08.564Z,15.83
2023-04-20T13:54:37.436Z,13.57
2023-04-20T13:57:05.366Z,13.30
2023-04-20T13:59:33.890Z,12.99
2023-04-20T14:02:02.487Z,12.82
2023-04-20T14:04:32.003Z,13.20
2023-04-20T14:06:59.924Z,14.71
2023-04-20T14:09:29.852Z,15.04
2023-04-20T14:11:57.908Z,15.90
2023-04-20T14:14:26.994Z,13.87
2023-04-20T14:16:54.989Z,16.75
2023-04-20T14:19:23.449Z,16.20
2023-04-20T14:21:53.435Z,15.52
2023-04-20T14:24:21.577Z,15.27
2023-04-20T14:26:49.573Z,14.99
2023-04-20T14:29:18.600Z,14.61
2023-04-20T14:31:46.637Z,14.67
2023-04-20T14:34:15.102Z,16.68
2023-04-20T14:36:43.543Z,16.00
2023-04-20T14:39:12.919Z,14.05
2023-04-20T14:41:40.820Z,14.13
2023-04-20T14:44:09.759Z,13.62
2023-04-20T14:46:38.663Z,13.28
2023-04-20T14:49:09.072Z,12.45
2023-04-20T14:51:37.023Z,12.45
2023-04-20T14:54:05.628Z,12.26
2023-04-20T14:56:35.655Z,12.05
2023-04-20T14:59:06.568Z,12.10
2023-04-20T15:01:34.698Z,11.96
2023-04-20T15:04:03.845Z,12.17
2023-04-20T15:06:32.076Z,12.16
2023-04-20T15:09:01.242Z,11.85
2023-04-20T15:11:29.802Z,11.64
2023-04-20T15:13:59.268Z,11.41
2023-04-20T15:16:29.812Z,11.58
2023-04-20T15:18:57.793Z,11.18
2023-04-20T15:21:26.855Z,11.30
2023-04-20T15:23:55.292Z,11.53
2023-04-20T15:26:23.289Z,11.11
2023-04-20T15:28:51.221Z,11.11
2023-04-20T15:31:21.510Z,11.01
2023-04-20T15:33:49.393Z,11.11
2023-04-20T15:36:20.507Z,10.92
2023-04-20T15:38:48.503Z,10.86
2023-04-20T15:41:16.492Z,10.84
2023-04-20T15:43:45.426Z,10.88
2023-04-20T15:46:13.557Z,10.84
2023-04-20T15:48:45.348Z,10.77
2023-04-20T15:51:13.482Z,10.72
2023-04-20T15:53:41.843Z,10.72
2023-04-20T15:56:10.725Z,10.86
2023-04-20T15:58:38.686Z,10.77
2023-04-20T16:01:07.186Z,10.72
2023-04-20T16:03:35.800Z,10.64
2023-04-20T16:06:05.428Z,10.56
2023-04-20T16:08:33.714Z,10.65
2023-04-20T16:11:02.533Z,10.64
2023-04-20T16:13:30.412Z,10.64
2023-04-20T16:15:59.532Z,10.65
2023-04-20T16:18:27.512Z,10.63
2023-04-20T16:20:56.108Z,10.60
2023-04-20T16:23:26.081Z,10.64
2023-04-20T16:25:54.255Z,10.57
2023-04-20T16:28:22.191Z,10.49
2023-04-20T16:30:51.112Z,10.46
2023-04-20T16:33:19.531Z,10.46
2023-04-20T16:35:48.126Z,10.37
2023-04-20T16:38:16.621Z,10.25
2023-04-20T16:40:45.977Z,10.13
2023-04-20T16:43:13.893Z,10.15
2023-04-20T16:45:42.817Z,10.17
2023-04-20T16:48:10.910Z,10.03
2023-04-20T16:50:40.915Z,9.87
2023-04-20T16:53:11.257Z,9.88
2023-04-20T16:55:39.145Z,9.82
2023-04-20T16:58:08.925Z,9.85
2023-04-20T17:00:37.369Z,9.92
2023-04-20T17:03:10.411Z,9.74
2023-04-20T17:05:41.980Z,9.78
2023-04-20T17:08:10.395Z,9.92
2023-04-20T17:10:39.307Z,9.55
2023-04-20T17:13:09.689Z,9.74
2023-04-20T17:15:40.071Z,9.64
2023-04-20T17:18:08.133Z,9.70
2023-04-20T17:20:37.211Z,9.70
2023-04-20T17:23:05.181Z,9.80
2023-04-20T17:25:33.770Z,9.82
2023-04-20T17:28:03.139Z,9.75
2023-04-20T17:30:32.451Z,9.67
2023-04-20T17:33:01.331Z,9.58
2023-04-20T17:35:29.283Z,9.53
2023-04-20T17:37:59.698Z,9.44
2023-04-20T17:40:28.177Z,9.39
2023-04-20T17:42:57.073Z,9.32
2023-04-20T17:45:25.071Z,9.43
2023-04-20T17:47:55.509Z,9.36
2023-04-20T17:50:24.218Z,9.28
2023-04-20T17:52:52.568Z,9.35
2023-04-20T17:55:21.704Z,9.28
2023-04-20T17:57:49.585Z,9.35
2023-04-20T18:00:19.173Z,9.29
2023-04-20T18:02:47.193Z,9.18
2023-04-20T18:05:17.564Z,9.15
2023-04-20T18:07:46.174Z,9.14
2023-04-20T18:10:15.707Z,9.18
2023-04-20T18:12:45.358Z,9.22
2023-04-20T18:15:13.538Z,9.09
2023-04-20T18:17:42.376Z,9.08
2023-04-20T18:20:11.944Z,9.11
2023-04-20T18:22:43.254Z,9.01
2023-04-20T18:25:11.984Z,9.09
2023-04-20T18:27:40.537Z,9.08
2023-04-20T18:30:10.669Z,9.07
2023-04-20T18:32:38.707Z,9.09
2023-04-20T18:35:09.302Z,9.14
2023-04-20T18:37:37.288Z,9.12
2023-04-20T18:40:09.045Z,9.11
2023-04-20T18:42:37.520Z,9.14
2023-04-20T18:45:06.925Z,9.11
2023-04-20T18:47:55.580Z,9.05
2023-04-20T18:50:23.549Z,9.01
2023-04-20T18:52:51.457Z,9.07
2023-04-20T18:55:22.664Z,9.08
2023-04-20T18:57:50.652Z,9.14
2023-04-20T19:00:20.148Z,8.94
2023-04-20T19:02:49.245Z,9.04
2023-04-20T19:05:17.741Z,9.11
2023-04-20T19:07:47.037Z,9.14
2023-04-20T19:10:15.048Z,9.08
2023-04-20T19:12:45.253Z,9.15
2023-04-20T19:15:13.260Z,9.08
2023-04-20T19:17:41.952Z,9.00
2023-04-20T19:20:12.151Z,9.02
2023-04-20T19:22:40.526Z,8.98
2023-04-20T19:25:09.484Z,9.09
2023-04-20T19:27:37.540Z,9.16
2023-04-20T19:30:09.459Z,9.16
2023-04-20T19:32:37.564Z,9.16
2023-04-20T19:35:06.455Z,9.18
2023-04-20T19:37:35.078Z,9.25
2023-04-20T19:40:05.547Z,9.18
2023-04-20T19:42:34.494Z,9.14
2023-04-20T19:45:02.316Z,9.22
2023-04-20T19:47:32.090Z,9.22
2023-04-20T19:50:03.786Z,9.11
2023-04-20T19:52:32.499Z,9.22
2023-04-20T19:55:01.384Z,9.22
2023-04-20T19:57:29.323Z,9.22
2023-04-20T19:59:57.943Z,9.39
2023-04-20T20:02:26.500Z,9.18
2023-04-20T20:04:56.044Z,9.28
2023-04-20T20:07:26.632Z,9.47
2023-04-20T20:09:54.657Z,9.25
2023-04-20T20:12:23.036Z,9.20
2023-04-20T20:14:51.602Z,9.33
2023-04-20T20:17:20.460Z,9.36
2023-04-20T20:19:49.899Z,9.35
2023-04-20T20:22:20.096Z,9.28
2023-04-20T20:24:51.139Z,9.22
2023-04-20T20:27:19.670Z,9.29
2023-04-20T20:29:47.696Z,9.37
2023-04-20T20:32:16.039Z,9.39
2023-04-20T20:34:44.424Z,9.33
2023-04-20T20:37:15.007Z,9.12
2023-04-20T20:39:44.840Z,9.00
2023-04-20T20:42:12.855Z,9.11
2023-04-20T20:44:42.051Z,9.23
2023-04-20T20:47:11.114Z,9.20
2023-04-20T20:49:39.019Z,9.18
2023-04-20T20:52:07.791Z,9.18
2023-04-20T20:54:36.303Z,9.23
2023-04-20T20:57:05.721Z,9.30
2023-04-20T20:59:36.804Z,9.29
2023-04-20T21:02:05.330Z,9.25
2023-04-20T21:04:33.371Z,9.30
2023-04-20T21:07:02.221Z,9.33
2023-04-20T21:09:30.407Z,9.23
2023-04-20T21:12:00.591Z,9.30
2023-04-20T21:14:29.897Z,9.23
2023-04-20T21:16:58.417Z,9.23
2023-04-20T21:19:27.545Z,9.25
2023-04-20T21:21:55.498Z,9.40
2023-04-20T21:24:23.851Z,9.37
2023-04-20T21:26:53.121Z,9.36
2023-04-20T21:29:21.327Z,9.37
2023-04-20T21:31:52.032Z,9.28
2023-04-20T21:34:21.298Z,9.19
2023-04-20T21:36:49.235Z,9.32
2023-04-20T21:39:18.625Z,9.26
2023-04-20T21:41:47.349Z,9.33
2023-04-20T21:44:15.918Z,9.39
2023-04-20T21:46:43.971Z,9.26
2023-04-20T21:49:14.295Z,9.40
2023-04-20T21:51:42.310Z,9.26
2023-04-20T21:54:10.597Z,9.22
2023-04-20T21:56:39.596Z,9.19
2023-04-20T21:59:07.952Z,9.25
2023-04-20T22:01:35.984Z,9.33
2023-04-20T22:04:05.028Z,9.20
2023-04-20T22:06:34.550Z,9.22
2023-04-20T22:09:02.473Z,9.29
2023-04-20T22:11:32.256Z,9.29
2023-04-20T22:14:00.456Z,9.28
2023-04-20T22:16:29.004Z,9.26
2023-04-20T22:18:57.423Z,9.25
2023-04-20T22:21:25.459Z,9.33
2023-04-20T22:23:55.830Z,9.33
2023-04-20T22:26:23.800Z,9.26
2023-04-20T22:28:52.352Z,9.29
2023-04-20T22:31:20.821Z,9.35
2023-04-20T22:33:48.778Z,9.28
2023-04-20T22:36:17.901Z,9.16
2023-04-20T22:38:45.876Z,9.26
2023-04-20T22:41:17.491Z,9.25
2023-04-20T22:43:46.635Z,9.36
2023-04-20T22:46:14.647Z,9.26
2023-04-20T22:48:43.072Z,9.30
2023-04-20T22:51:11.504Z,9.33
2023-04-20T22:53:39.560Z,9.39
2023-04-20T22:56:09.386Z,9.32
2023-04-20T22:58:38.826Z,9.28
2023-04-20T23:01:06.803Z,9.25
2023-04-20T23:03:36.052Z,9.08
2023-04-20T23:06:04.105Z,9.14
2023-04-20T23:08:33.969Z,9.05
2023-04-20T23:11:01.956Z,9.05
2023-04-20T23:13:31.194Z,8.89
2023-04-20T23:16:00.557Z,8.92
2023-04-20T23:18:28.931Z,8.94
2023-04-20T23:20:57.953Z,8.85
2023-04-20T23:23:25.992Z,8.80
2023-04-20T23:25:53.980Z,8.87
2023-04-20T23:28:22.847Z,8.71
2023-04-20T23:30:50.946Z,8.60
2023-04-20T23:33:20.895Z,8.57
2023-04-20T23:35:48.833Z,8.57
2023-04-20T23:38:18.177Z,8.59
2023-04-20T23:40:46.578Z,8.59
2023-04-20T23:43:14.558Z,8.59
2023-04-20T23:45:42.999Z,8.50
2023-04-20T23:48:11.630Z,8.46
2023-04-20T23:50:40.926Z,8.42
2023-04-20T23:53:10.678Z,8.32
2023-04-20T23:55:38.597Z,8.26
2023-04-20T23:58:07.142Z,8.16
